sensor_id;sensor_type;location;lat;lon;timestamp;temperature;humidity
18974;DHT22;9621;48.690;9.466;2023-04-24T00:00:14;8.30;99.90
18974;DHT22;9621;48.690;9.466;2023-04-24T00:02:43;8.30;99.90
18974;DHT22;9621;48.690;9.466;2023-04-24T00:05:13;8.40;99.90
18974;DHT22;9621;48.690;9.466;2023-04-24T00:07:40;8.30;99.90
18974;DHT22;9621;48.690;9.466;2023-04-24T00:10:08;8.20;99.90
18974;DHT22;9621;48.690;9.466;2023-04-24T00:12:35;8.20;99.90
18974;DHT22;9621;48.690;9.466;2023-04-24T00:15:04;8.20;99.90
18974;DHT22;9621;48.690;9.466;2023-04-24T00:17:32;8.10;99.90
18974;DHT22;9621;48.690;9.466;2023-04-24T00:19:58;8.10;99.90
18974;DHT22;9621;48.690;9.466;2023-04-24T00:22:26;8.10;99.90
18974;DHT22;9621;48.690;9.466;2023-04-24T00:24:54;8.10;99.90
18974;DHT22;9621;48.690;9.466;2023-04-24T00:27:21;8.10;99.90
18974;DHT22;9621;48.690;9.466;2023-04-24T00:29:48;8.00;99.90
18974;DHT22;9621;48.690;9.466;2023-04-24T00:32:16;8.10;99.90
18974;DHT22;9621;48.690;9.466;2023-04-24T00:34:43;8.00;99.90
18974;DHT22;9621;48.690;9.466;2023-04-24T00:37:10;8.10;99.90
18974;DHT22;9621;48.690;9.466;2023-04-24T00:39:37;8.10;99.90
18974;DHT22;9621;48.690;9.466;2023-04-24T00:42:04;8.10;99.90
18974;DHT22;9621;48.690;9.466;2023-04-24T00:44:32;8.10;99.90
18974;DHT22;9621;48.690;9.466;2023-04-24T00:46:59;8.20;99.90
18974;DHT22;9621;48.690;9.466;2023-04-24T00:49:28;8.20;99.90
18974;DHT22;9621;48.690;9.466;2023-04-24T00:51:56;8.20;99.90
18974;DHT22;9621;48.690;9.466;2023-04-24T00:54:24;8.20;99.90
18974;DHT22;9621;48.690;9.466;2023-04-24T00:56:51;8.20;99.90
18974;DHT22;9621;48.690;9.466;2023-04-24T00:59:18;8.20;99.90
18974;DHT22;9621;48.690;9.466;2023-04-24T01:01:45;8.20;99.90
18974;DHT22;9621;48.690;9.466;2023-04-24T01:04:14;8.30;99.90
18974;DHT22;9621;48.690;9.466;2023-04-24T01:06:43;8.20;99.90
18974;DHT22;9621;48.690;9.466;2023-04-24T01:09:11;8.20;99.90
18974;DHT22;9621;48.690;9.466;2023-04-24T01:11:40;8.30;99.90
18974;DHT22;9621;48.690;9.466;2023-04-24T01:14:08;8.30;99.90
18974;DHT22;9621;48.690;9.466;2023-04-24T01:16:35;8.30;99.90
18974;DHT22;9621;48.690;9.466;2023-04-24T01:19:03;8.40;99.90
18974;DHT22;9621;48.690;9.466;2023-04-24T01:21:33;8.40;99.90
18974;DHT22;9621;48.690;9.466;2023-04-24T01:24:03;8.50;99.90
18974;DHT22;9621;48.690;9.466;2023-04-24T01:26:30;8.50;99.90
18974;DHT22;9621;48.690;9.466;2023-04-24T01:28:57;8.50;99.90
18974;DHT22;9621;48.690;9.466;2023-04-24T01:31:24;8.50;99.90
18974;DHT22;9621;48.690;9.466;2023-04-24T01:33:51;8.50;99.90
18974;DHT22;9621;48.690;9.466;2023-04-24T01:36:19;8.60;99.90
18974;DHT22;9621;48.690;9.466;2023-04-24T01:38:47;8.70;99.90
18974;DHT22;9621;48.690;9.466;2023-04-24T01:41:15;8.70;99.90
18974;DHT22;9621;48.690;9.466;2023-04-24T01:43:42;8.70;99.90
18974;DHT22;9621;48.690;9.466;2023-04-24T01:46:09;8.80;99.90
18974;DHT22;9621;48.690;9.466;2023-04-24T01:48:36;8.70;99.90
18974;DHT22;9621;48.690;9.466;2023-04-24T01:51:03;8.80;99.90
18974;DHT22;9621;48.690;9.466;2023-04-24T01:53:30;8.70;99.90
18974;DHT22;9621;48.690;9.466;2023-04-24T01:55:57;8.80;99.90
18974;DHT22;9621;48.690;9.466;2023-04-24T01:58:26;8.80;99.90
18974;DHT22;9621;48.690;9.466;2023-04-24T02:00:56;8.70;99.90
18974;DHT22;9621;48.690;9.466;2023-04-24T02:03:23;8.70;99.90
18974;DHT22;9621;48.690;9.466;2023-04-24T02:05:50;8.70;99.90
18974;DHT22;9621;48.690;9.466;2023-04-24T02:08:16;8.70;99.90
18974;DHT22;9621;48.690;9.466;2023-04-24T02:10:43;8.70;99.90
18974;DHT22;9621;48.690;9.466;2023-04-24T02:13:10;8.80;99.90
18974;DHT22;9621;48.690;9.466;2023-04-24T02:15:39;8.60;99.90
18974;DHT22;9621;48.690;9.466;2023-04-24T02:18:06;8.60;99.90
18974;DHT22;9621;48.690;9.466;2023-04-24T02:20:33;8.60;99.90
18974;DHT22;9621;48.690;9.466;2023-04-24T02:23:01;8.60;99.90
18974;DHT22;9621;48.690;9.466;2023-04-24T02:25:27;8.60;99.90
18974;DHT22;9621;48.690;9.466;2023-04-24T02:27:54;8.60;99.90
18974;DHT22;9621;48.690;9.466;2023-04-24T02:30:21;8.70;99.90
18974;DHT22;9621;48.690;9.466;2023-04-24T02:32:50;8.60;99.90
18974;DHT22;9621;48.690;9.466;2023-04-24T02:35:17;8.60;99.90
18974;DHT22;9621;48.690;9.466;2023-04-24T02:37:44;8.60;99.90
18974;DHT22;9621;48.690;9.466;2023-04-24T02:40:11;8.70;99.90
18974;DHT22;9621;48.690;9.466;2023-04-24T02:42:38;8.70;99.90
18974;DHT22;9621;48.690;9.466;2023-04-24T02:45:05;8.70;99.90
18974;DHT22;9621;48.690;9.466;2023-04-24T02:47:33;8.60;99.90
18974;DHT22;9621;48.690;9.466;2023-04-24T02:50:01;8.60;99.90
18974;DHT22;9621;48.690;9.466;2023-04-24T02:52:28;8.60;99.90
18974;DHT22;9621;48.690;9.466;2023-04-24T02:54:55;8.60;99.90
18974;DHT22;9621;48.690;9.466;2023-04-24T02:57:22;8.60;99.90
18974;DHT22;9621;48.690;9.466;2023-04-24T02:59:49;8.50;99.90
18974;DHT22;9621;48.690;9.466;2023-04-24T03:02:15;8.60;99.90
18974;DHT22;9621;48.690;9.466;2023-04-24T03:04:43;8.50;99.90
18974;DHT22;9621;48.690;9.466;2023-04-24T03:07:12;8.50;99.90
18974;DHT22;9621;48.690;9.466;2023-04-24T03:09:39;8.50;99.90
18974;DHT22;9621;48.690;9.466;2023-04-24T03:12:06;8.50;99.90
18974;DHT22;9621;48.690;9.466;2023-04-24T03:14:33;8.50;99.90
18974;DHT22;9621;48.690;9.466;2023-04-24T03:17:00;8.50;99.90
18974;DHT22;9621;48.690;9.466;2023-04-24T03:19:27;8.50;99.90
18974;DHT22;9621;48.690;9.466;2023-04-24T03:21:54;8.50;99.90
18974;DHT22;9621;48.690;9.466;2023-04-24T03:24:22;8.60;99.90
18974;DHT22;9621;48.690;9.466;2023-04-24T03:26:49;8.60;99.90
18974;DHT22;9621;48.690;9.466;2023-04-24T03:29:15;8.50;99.90
18974;DHT22;9621;48.690;9.466;2023-04-24T03:31:42;8.60;99.90
18974;DHT22;9621;48.690;9.466;2023-04-24T03:34:09;8.60;99.90
18974;DHT22;9621;48.690;9.466;2023-04-24T03:36:36;8.60;99.90
18974;DHT22;9621;48.690;9.466;2023-04-24T03:39:03;8.60;99.90
18974;DHT22;9621;48.690;9.466;2023-04-24T03:41:32;8.60;99.90
18974;DHT22;9621;48.690;9.466;2023-04-24T03:43:59;8.60;99.90
18974;DHT22;9621;48.690;9.466;2023-04-24T03:46:25;8.60;99.90
18974;DHT22;9621;48.690;9.466;2023-04-24T03:48:52;8.60;99.90
18974;DHT22;9621;48.690;9.466;2023-04-24T03:51:19;8.70;99.90
18974;DHT22;9621;48.690;9.466;2023-04-24T03:53:47;8.50;99.90
18974;DHT22;9621;48.690;9.466;2023-04-24T03:56:14;8.50;99.90
18974;DHT22;9621;48.690;9.466;2023-04-24T03:58:42;8.60;99.90
18974;DHT22;9621;48.690;9.466;2023-04-24T04:01:09;8.50;99.90
18974;DHT22;9621;48.690;9.466;2023-04-24T04:03:37;8.50;99.90
18974;DHT22;9621;48.690;9.466;2023-04-24T04:06:04;8.50;99.90
18974;DHT22;9621;48.690;9.466;2023-04-24T04:08:31;8.50;99.90
18974;DHT22;9621;48.690;9.466;2023-04-24T04:10:58;8.40;99.90
18974;DHT22;9621;48.690;9.466;2023-04-24T04:13:25;8.40;99.90
18974;DHT22;9621;48.690;9.466;2023-04-24T04:15:53;8.40;99.90
18974;DHT22;9621;48.690;9.466;2023-04-24T04:18:20;8.50;99.90
18974;DHT22;9621;48.690;9.466;2023-04-24T04:20:47;8.30;99.90
18974;DHT22;9621;48.690;9.466;2023-04-24T04:23:14;8.30;99.90
18974;DHT22;9621;48.690;9.466;2023-04-24T04:25:41;8.20;99.90
18974;DHT22;9621;48.690;9.466;2023-04-24T04:28:08;8.10;99.90
18974;DHT22;9621;48.690;9.466;2023-04-24T04:30:35;8.10;99.90
18974;DHT22;9621;48.690;9.466;2023-04-24T04:33:05;8.00;99.90
18974;DHT22;9621;48.690;9.466;2023-04-24T04:35:32;8.00;99.90
18974;DHT22;9621;48.690;9.466;2023-04-24T04:37:58;8.00;99.90
18974;DHT22;9621;48.690;9.466;2023-04-24T04:40:26;8.20;99.90
18974;DHT22;9621;48.690;9.466;2023-04-24T04:42:53;8.10;99.90
18974;DHT22;9621;48.690;9.466;2023-04-24T04:45:20;8.30;99.90
18974;DHT22;9621;48.690;9.466;2023-04-24T04:47:47;8.20;99.90
18974;DHT22;9621;48.690;9.466;2023-04-24T04:50:16;8.20;99.90
18974;DHT22;9621;48.690;9.466;2023-04-24T04:52:44;8.30;99.90
18974;DHT22;9621;48.690;9.466;2023-04-24T04:55:14;8.40;99.90
18974;DHT22;9621;48.690;9.466;2023-04-24T04:57:41;8.50;99.90
18974;DHT22;9621;48.690;9.466;2023-04-24T05:00:09;8.50;99.90
18974;DHT22;9621;48.690;9.466;2023-04-24T05:02:37;8.50;99.90
18974;DHT22;9621;48.690;9.466;2023-04-24T05:05:04;8.60;99.90
18974;DHT22;9621;48.690;9.466;2023-04-24T05:07:33;8.60;99.90
18974;DHT22;9621;48.690;9.466;2023-04-24T05:10:00;8.50;99.90
18974;DHT22;9621;48.690;9.466;2023-04-24T05:12:27;8.40;99.90
18974;DHT22;9621;48.690;9.466;2023-04-24T05:14:54;8.20;99.90
18974;DHT22;9621;48.690;9.466;2023-04-24T05:17:21;8.10;99.90
18974;DHT22;9621;48.690;9.466;2023-04-24T05:19:48;7.90;99.90
18974;DHT22;9621;48.690;9.466;2023-04-24T05:22:15;7.80;99.90
18974;DHT22;9621;48.690;9.466;2023-04-24T05:24:45;7.60;99.90
18974;DHT22;9621;48.690;9.466;2023-04-24T05:27:12;7.50;99.90
18974;DHT22;9621;48.690;9.466;2023-04-24T05:29:39;7.40;99.90
18974;DHT22;9621;48.690;9.466;2023-04-24T05:32:06;7.40;99.90
18974;DHT22;9621;48.690;9.466;2023-04-24T05:34:33;7.30;99.90
18974;DHT22;9621;48.690;9.466;2023-04-24T05:37:00;7.30;99.90
18974;DHT22;9621;48.690;9.466;2023-04-24T05:39:27;7.20;99.90
18974;DHT22;9621;48.690;9.466;2023-04-24T05:41:55;7.20;99.90
18974;DHT22;9621;48.690;9.466;2023-04-24T05:44:23;7.20;99.90
18974;DHT22;9621;48.690;9.466;2023-04-24T05:46:51;7.20;99.90
18974;DHT22;9621;48.690;9.466;2023-04-24T05:49:18;7.20;99.90
18974;DHT22;9621;48.690;9.466;2023-04-24T05:51:53;7.20;99.90
18974;DHT22;9621;48.690;9.466;2023-04-24T05:54:20;7.30;99.90
18974;DHT22;9621;48.690;9.466;2023-04-24T05:56:46;7.20;99.90
18974;DHT22;9621;48.690;9.466;2023-04-24T05:59:15;7.30;99.90
18974;DHT22;9621;48.690;9.466;2023-04-24T06:01:42;7.30;99.90
18974;DHT22;9621;48.690;9.466;2023-04-24T06:04:08;7.40;99.90
18974;DHT22;9621;48.690;9.466;2023-04-24T06:06:35;7.30;99.90
18974;DHT22;9621;48.690;9.466;2023-04-24T06:09:02;7.40;99.90
18974;DHT22;9621;48.690;9.466;2023-04-24T06:11:30;7.40;99.90
18974;DHT22;9621;48.690;9.466;2023-04-24T06:14:00;7.40;99.90
18974;DHT22;9621;48.690;9.466;2023-04-24T06:16:28;7.40;99.90
18974;DHT22;9621;48.690;9.466;2023-04-24T06:18:56;7.50;99.90
18974;DHT22;9621;48.690;9.466;2023-04-24T06:21:23;7.60;99.90
18974;DHT22;9621;48.690;9.466;2023-04-24T06:23:50;7.70;99.90
18974;DHT22;9621;48.690;9.466;2023-04-24T06:26:16;7.70;99.90
18974;DHT22;9621;48.690;9.466;2023-04-24T06:28:46;7.80;99.90
18974;DHT22;9621;48.690;9.466;2023-04-24T06:31:13;7.90;99.90
18974;DHT22;9621;48.690;9.466;2023-04-24T06:33:41;7.90;99.90
18974;DHT22;9621;48.690;9.466;2023-04-24T06:36:08;8.00;99.90
18974;DHT22;9621;48.690;9.466;2023-04-24T06:38:36;8.10;99.90
18974;DHT22;9621;48.690;9.466;2023-04-24T06:41:05;8.30;99.90
18974;DHT22;9621;48.690;9.466;2023-04-24T06:43:32;8.40;99.90
18974;DHT22;9621;48.690;9.466;2023-04-24T06:46:00;8.40;99.90
18974;DHT22;9621;48.690;9.466;2023-04-24T06:48:28;8.60;99.90
18974;DHT22;9621;48.690;9.466;2023-04-24T06:50:57;9.10;99.90
18974;DHT22;9621;48.690;9.466;2023-04-24T06:53:24;9.50;99.90
18974;DHT22;9621;48.690;9.466;2023-04-24T06:55:51;10.00;99.90
18974;DHT22;9621;48.690;9.466;2023-04-24T06:58:18;10.60;99.90
18974;DHT22;9621;48.690;9.466;2023-04-24T07:00:45;11.10;99.90
18974;DHT22;9621;48.690;9.466;2023-04-24T07:03:12;11.60;99.90
18974;DHT22;9621;48.690;9.466;2023-04-24T07:05:39;12.00;99.90
18974;DHT22;9621;48.690;9.466;2023-04-24T07:08:08;12.40;99.90
18974;DHT22;9621;48.690;9.466;2023-04-24T07:10:36;12.80;99.90
18974;DHT22;9621;48.690;9.466;2023-04-24T07:13:04;13.20;99.90
18974;DHT22;9621;48.690;9.466;2023-04-24T07:15:32;13.40;99.90
18974;DHT22;9621;48.690;9.466;2023-04-24T07:17:59;13.60;99.90
18974;DHT22;9621;48.690;9.466;2023-04-24T07:20:26;13.60;99.90
18974;DHT22;9621;48.690;9.466;2023-04-24T07:22:53;13.50;99.90
18974;DHT22;9621;48.690;9.466;2023-04-24T07:25:22;13.40;99.90
18974;DHT22;9621;48.690;9.466;2023-04-24T07:27:49;13.20;99.90
18974;DHT22;9621;48.690;9.466;2023-04-24T07:30:16;13.10;99.90
18974;DHT22;9621;48.690;9.466;2023-04-24T07:32:43;12.90;99.90
18974;DHT22;9621;48.690;9.466;2023-04-24T07:35:10;12.90;99.90
18974;DHT22;9621;48.690;9.466;2023-04-24T07:37:37;13.20;99.90
18974;DHT22;9621;48.690;9.466;2023-04-24T07:40:05;13.60;99.90
18974;DHT22;9621;48.690;9.466;2023-04-24T07:42:34;13.70;99.90
18974;DHT22;9621;48.690;9.466;2023-04-24T07:45:02;13.60;99.90
18974;DHT22;9621;48.690;9.466;2023-04-24T07:47:29;13.40;99.90
18974;DHT22;9621;48.690;9.466;2023-04-24T07:49:56;13.10;99.90
18974;DHT22;9621;48.690;9.466;2023-04-24T07:52:23;12.80;99.90
18974;DHT22;9621;48.690;9.466;2023-04-24T07:54:50;12.40;99.90
18974;DHT22;9621;48.690;9.466;2023-04-24T07:57:24;12.00;99.90
18974;DHT22;9621;48.690;9.466;2023-04-24T07:59:52;11.60;99.90
18974;DHT22;9621;48.690;9.466;2023-04-24T08:02:19;11.20;99.90
18974;DHT22;9621;48.690;9.466;2023-04-24T08:04:51;10.80;99.90
18974;DHT22;9621;48.690;9.466;2023-04-24T08:07:18;10.40;99.90
18974;DHT22;9621;48.690;9.466;2023-04-24T08:09:45;10.20;99.90
18974;DHT22;9621;48.690;9.466;2023-04-24T08:12:12;10.10;99.90
18974;DHT22;9621;48.690;9.466;2023-04-24T08:14:39;10.20;99.90
18974;DHT22;9621;48.690;9.466;2023-04-24T08:17:07;10.50;99.90
18974;DHT22;9621;48.690;9.466;2023-04-24T08:19:34;10.80;99.90
18974;DHT22;9621;48.690;9.466;2023-04-24T08:22:01;11.30;99.90
18974;DHT22;9621;48.690;9.466;2023-04-24T08:24:29;11.40;99.90
18974;DHT22;9621;48.690;9.466;2023-04-24T08:26:56;11.60;99.90
18974;DHT22;9621;48.690;9.466;2023-04-24T08:29:24;11.90;99.90
18974;DHT22;9621;48.690;9.466;2023-04-24T08:31:52;12.20;99.90
18974;DHT22;9621;48.690;9.466;2023-04-24T08:34:22;12.30;99.90
18974;DHT22;9621;48.690;9.466;2023-04-24T08:36:49;12.30;99.90
18974;DHT22;9621;48.690;9.466;2023-04-24T08:39:17;12.30;99.90
18974;DHT22;9621;48.690;9.466;2023-04-24T08:41:44;12.10;99.90
18974;DHT22;9621;48.690;9.466;2023-04-24T08:44:12;12.00;99.90
18974;DHT22;9621;48.690;9.466;2023-04-24T08:46:42;12.00;99.90
18974;DHT22;9621;48.690;9.466;2023-04-24T08:49:11;11.70;99.90
18974;DHT22;9621;48.690;9.466;2023-04-24T08:51:40;11.50;99.90
18974;DHT22;9621;48.690;9.466;2023-04-24T08:54:07;11.40;99.90
18974;DHT22;9621;48.690;9.466;2023-04-24T08:56:37;11.30;99.90
18974;DHT22;9621;48.690;9.466;2023-04-24T08:59:05;11.30;99.90
18974;DHT22;9621;48.690;9.466;2023-04-24T09:01:32;11.30;99.90
18974;DHT22;9621;48.690;9.466;2023-04-24T09:04:01;11.30;99.90
18974;DHT22;9621;48.690;9.466;2023-04-24T09:06:30;11.20;99.90
18974;DHT22;9621;48.690;9.466;2023-04-24T09:09:00;11.30;99.90
18974;DHT22;9621;48.690;9.466;2023-04-24T09:11:30;11.40;99.90
18974;DHT22;9621;48.690;9.466;2023-04-24T09:13:57;11.50;99.90
18974;DHT22;9621;48.690;9.466;2023-04-24T09:16:25;11.70;99.90
18974;DHT22;9621;48.690;9.466;2023-04-24T09:18:53;12.10;99.90
18974;DHT22;9621;48.690;9.466;2023-04-24T09:21:21;12.40;99.90
18974;DHT22;9621;48.690;9.466;2023-04-24T09:24:00;12.90;99.90
18974;DHT22;9621;48.690;9.466;2023-04-24T09:26:29;13.40;99.90
18974;DHT22;9621;48.690;9.466;2023-04-24T09:28:58;13.70;99.90
18974;DHT22;9621;48.690;9.466;2023-04-24T09:31:27;13.90;99.90
18974;DHT22;9621;48.690;9.466;2023-04-24T09:33:55;13.90;99.90
18974;DHT22;9621;48.690;9.466;2023-04-24T09:36:30;13.90;99.90
18974;DHT22;9621;48.690;9.466;2023-04-24T09:39:00;14.00;99.90
18974;DHT22;9621;48.690;9.466;2023-04-24T09:41:28;14.00;99.90
18974;DHT22;9621;48.690;9.466;2023-04-24T09:43:55;13.90;99.90
18974;DHT22;9621;48.690;9.466;2023-04-24T09:46:30;13.90;99.90
18974;DHT22;9621;48.690;9.466;2023-04-24T09:48:57;13.80;99.90
18974;DHT22;9621;48.690;9.466;2023-04-24T09:51:34;13.90;99.90
18974;DHT22;9621;48.690;9.466;2023-04-24T09:54:10;13.70;99.90
18974;DHT22;9621;48.690;9.466;2023-04-24T09:56:42;13.70;99.90
18974;DHT22;9621;48.690;9.466;2023-04-24T09:59:09;13.60;99.90
18974;DHT22;9621;48.690;9.466;2023-04-24T10:01:37;13.70;99.90
18974;DHT22;9621;48.690;9.466;2023-04-24T10:04:15;13.80;99.90
18974;DHT22;9621;48.690;9.466;2023-04-24T10:06:43;13.90;99.90
18974;DHT22;9621;48.690;9.466;2023-04-24T10:09:12;13.90;99.90
18974;DHT22;9621;48.690;9.466;2023-04-24T10:11:42;13.90;99.90
18974;DHT22;9621;48.690;9.466;2023-04-24T10:14:09;13.90;99.90
18974;DHT22;9621;48.690;9.466;2023-04-24T10:16:38;13.90;99.90
18974;DHT22;9621;48.690;9.466;2023-04-24T10:19:06;13.90;99.90
18974;DHT22;9621;48.690;9.466;2023-04-24T10:21:34;14.00;99.90
18974;DHT22;9621;48.690;9.466;2023-04-24T10:24:01;14.10;99.90
18974;DHT22;9621;48.690;9.466;2023-04-24T10:26:32;14.20;99.90
18974;DHT22;9621;48.690;9.466;2023-04-24T10:28:59;14.50;99.90
18974;DHT22;9621;48.690;9.466;2023-04-24T10:31:26;14.80;99.90
18974;DHT22;9621;48.690;9.466;2023-04-24T10:33:55;14.90;99.90
18974;DHT22;9621;48.690;9.466;2023-04-24T10:36:23;14.80;99.90
18974;DHT22;9621;48.690;9.466;2023-04-24T10:38:53;14.70;99.90
18974;DHT22;9621;48.690;9.466;2023-04-24T10:41:21;14.40;99.90
18974;DHT22;9621;48.690;9.466;2023-04-24T10:44:05;14.30;99.90
18974;DHT22;9621;48.690;9.466;2023-04-24T10:46:33;14.40;99.90
18974;DHT22;9621;48.690;9.466;2023-04-24T10:49:03;14.50;99.90
18974;DHT22;9621;48.690;9.466;2023-04-24T10:51:45;14.80;99.90
18974;DHT22;9621;48.690;9.466;2023-04-24T10:54:25;15.10;99.90
18974;DHT22;9621;48.690;9.466;2023-04-24T10:56:53;15.30;99.90
18974;DHT22;9621;48.690;9.466;2023-04-24T10:59:28;15.50;99.90
18974;DHT22;9621;48.690;9.466;2023-04-24T11:02:02;15.50;99.90
18974;DHT22;9621;48.690;9.466;2023-04-24T11:04:31;15.40;99.90
18974;DHT22;9621;48.690;9.466;2023-04-24T11:06:58;15.20;99.90
18974;DHT22;9621;48.690;9.466;2023-04-24T11:09:27;15.20;99.90
18974;DHT22;9621;48.690;9.466;2023-04-24T11:12:03;15.10;99.90
18974;DHT22;9621;48.690;9.466;2023-04-24T11:15:01;15.00;99.90
18974;DHT22;9621;48.690;9.466;2023-04-24T11:17:31;15.00;99.90
18974;DHT22;9621;48.690;9.466;2023-04-24T11:20:02;14.90;99.90
18974;DHT22;9621;48.690;9.466;2023-04-24T11:22:34;14.80;99.90
18974;DHT22;9621;48.690;9.466;2023-04-24T11:25:01;14.70;99.90
18974;DHT22;9621;48.690;9.466;2023-04-24T11:27:30;14.60;99.90
18974;DHT22;9621;48.690;9.466;2023-04-24T11:30:02;14.50;99.90
18974;DHT22;9621;48.690;9.466;2023-04-24T11:32:33;14.40;99.90
18974;DHT22;9621;48.690;9.466;2023-04-24T11:35:02;14.20;99.90
18974;DHT22;9621;48.690;9.466;2023-04-24T11:37:34;14.00;99.90
18974;DHT22;9621;48.690;9.466;2023-04-24T11:40:03;13.80;99.90
18974;DHT22;9621;48.690;9.466;2023-04-24T11:42:34;13.70;99.90
18974;DHT22;9621;48.690;9.466;2023-04-24T11:45:07;13.60;99.90
18974;DHT22;9621;48.690;9.466;2023-04-24T11:47:34;13.40;99.90
18974;DHT22;9621;48.690;9.466;2023-04-24T11:50:02;13.20;99.90
18974;DHT22;9621;48.690;9.466;2023-04-24T11:52:30;13.00;99.90
18974;DHT22;9621;48.690;9.466;2023-04-24T11:54:57;12.90;99.90
18974;DHT22;9621;48.690;9.466;2023-04-24T11:57:25;12.80;99.90
18974;DHT22;9621;48.690;9.466;2023-04-24T11:59:54;12.70;99.90
18974;DHT22;9621;48.690;9.466;2023-04-24T12:02:23;12.50;99.90
18974;DHT22;9621;48.690;9.466;2023-04-24T12:04:51;12.40;99.90
18974;DHT22;9621;48.690;9.466;2023-04-24T12:07:19;12.30;99.90
18974;DHT22;9621;48.690;9.466;2023-04-24T12:09:47;12.30;99.90
18974;DHT22;9621;48.690;9.466;2023-04-24T12:12:17;12.20;99.90
18974;DHT22;9621;48.690;9.466;2023-04-24T12:14:46;12.10;99.90
18974;DHT22;9621;48.690;9.466;2023-04-24T12:17:14;11.90;99.90
18974;DHT22;9621;48.690;9.466;2023-04-24T12:19:46;11.90;99.90
18974;DHT22;9621;48.690;9.466;2023-04-24T12:22:16;11.80;99.90
18974;DHT22;9621;48.690;9.466;2023-04-24T12:24:56;11.70;99.90
18974;DHT22;9621;48.690;9.466;2023-04-24T12:27:24;11.70;99.90
18974;DHT22;9621;48.690;9.466;2023-04-24T12:29:55;11.70;99.90
18974;DHT22;9621;48.690;9.466;2023-04-24T12:32:22;11.80;99.90
18974;DHT22;9621;48.690;9.466;2023-04-24T12:34:52;12.00;99.90
18974;DHT22;9621;48.690;9.466;2023-04-24T12:37:19;12.10;99.90
18974;DHT22;9621;48.690;9.466;2023-04-24T12:39:59;12.20;99.90
18974;DHT22;9621;48.690;9.466;2023-04-24T12:42:27;12.50;99.90
18974;DHT22;9621;48.690;9.466;2023-04-24T12:44:56;12.70;99.90
18974;DHT22;9621;48.690;9.466;2023-04-24T12:47:25;12.90;99.90
18974;DHT22;9621;48.690;9.466;2023-04-24T12:49:53;13.00;99.90
18974;DHT22;9621;48.690;9.466;2023-04-24T12:52:21;13.00;99.90
18974;DHT22;9621;48.690;9.466;2023-04-24T12:54:49;12.90;99.90
18974;DHT22;9621;48.690;9.466;2023-04-24T12:57:16;12.90;99.90
18974;DHT22;9621;48.690;9.466;2023-04-24T12:59:43;12.80;99.90
18974;DHT22;9621;48.690;9.466;2023-04-24T13:02:12;12.80;99.90
18974;DHT22;9621;48.690;9.466;2023-04-24T13:04:39;12.80;99.90
18974;DHT22;9621;48.690;9.466;2023-04-24T13:07:08;12.90;99.90
18974;DHT22;9621;48.690;9.466;2023-04-24T13:09:35;12.90;99.90
18974;DHT22;9621;48.690;9.466;2023-04-24T13:12:02;12.90;99.90
18974;DHT22;9621;48.690;9.466;2023-04-24T13:14:31;12.90;99.90
18974;DHT22;9621;48.690;9.466;2023-04-24T13:16:58;12.90;99.90
18974;DHT22;9621;48.690;9.466;2023-04-24T13:19:25;13.00;99.90
18974;DHT22;9621;48.690;9.466;2023-04-24T13:21:53;13.00;99.90
18974;DHT22;9621;48.690;9.466;2023-04-24T13:24:23;13.00;99.90
18974;DHT22;9621;48.690;9.466;2023-04-24T13:26:50;13.00;99.90
18974;DHT22;9621;48.690;9.466;2023-04-24T13:29:19;13.00;99.90
18974;DHT22;9621;48.690;9.466;2023-04-24T13:31:46;12.90;99.90
18974;DHT22;9621;48.690;9.466;2023-04-24T13:34:14;12.80;99.90
18974;DHT22;9621;48.690;9.466;2023-04-24T13:36:41;12.80;99.90
18974;DHT22;9621;48.690;9.466;2023-04-24T13:39:08;12.70;99.90
18974;DHT22;9621;48.690;9.466;2023-04-24T13:41:37;12.80;99.90
18974;DHT22;9621;48.690;9.466;2023-04-24T13:44:05;12.80;99.90
18974;DHT22;9621;48.690;9.466;2023-04-24T13:46:34;12.70;99.90
18974;DHT22;9621;48.690;9.466;2023-04-24T13:49:01;12.90;99.90
18974;DHT22;9621;48.690;9.466;2023-04-24T13:51:29;12.90;99.90
18974;DHT22;9621;48.690;9.466;2023-04-24T13:53:56;13.00;99.90
18974;DHT22;9621;48.690;9.466;2023-04-24T13:56:23;13.00;99.90
18974;DHT22;9621;48.690;9.466;2023-04-24T13:58:51;13.00;99.90
18974;DHT22;9621;48.690;9.466;2023-04-24T14:01:19;13.10;99.90
18974;DHT22;9621;48.690;9.466;2023-04-24T14:03:46;13.10;99.90
18974;DHT22;9621;48.690;9.466;2023-04-24T14:06:13;13.20;99.90
18974;DHT22;9621;48.690;9.466;2023-04-24T14:08:40;13.20;99.90
18974;DHT22;9621;48.690;9.466;2023-04-24T14:11:07;13.20;99.90
18974;DHT22;9621;48.690;9.466;2023-04-24T14:13:35;13.10;99.90
18974;DHT22;9621;48.690;9.466;2023-04-24T14:16:04;12.90;99.90
18974;DHT22;9621;48.690;9.466;2023-04-24T14:18:31;12.80;99.90
18974;DHT22;9621;48.690;9.466;2023-04-24T14:20:58;12.70;99.90
18974;DHT22;9621;48.690;9.466;2023-04-24T14:23:26;12.50;99.90
18974;DHT22;9621;48.690;9.466;2023-04-24T14:25:53;12.40;99.90
18974;DHT22;9621;48.690;9.466;2023-04-24T14:28:20;12.20;99.90
18974;DHT22;9621;48.690;9.466;2023-04-24T14:30:48;12.10;99.90
18974;DHT22;9621;48.690;9.466;2023-04-24T14:33:16;12.10;99.90
18974;DHT22;9621;48.690;9.466;2023-04-24T14:35:43;12.10;99.90
18974;DHT22;9621;48.690;9.466;2023-04-24T14:38:11;12.10;99.90
18974;DHT22;9621;48.690;9.466;2023-04-24T14:40:38;12.10;99.90
18974;DHT22;9621;48.690;9.466;2023-04-24T14:43:04;12.10;99.90
18974;DHT22;9621;48.690;9.466;2023-04-24T14:45:31;12.10;99.90
18974;DHT22;9621;48.690;9.466;2023-04-24T14:47:58;12.10;99.90
18974;DHT22;9621;48.690;9.466;2023-04-24T14:50:27;12.20;99.90
18974;DHT22;9621;48.690;9.466;2023-04-24T14:52:54;12.10;99.90
18974;DHT22;9621;48.690;9.466;2023-04-24T14:55:22;12.10;99.90
18974;DHT22;9621;48.690;9.466;2023-04-24T14:57:50;12.00;99.90
18974;DHT22;9621;48.690;9.466;2023-04-24T15:00:18;12.00;99.90
18974;DHT22;9621;48.690;9.466;2023-04-24T15:02:45;11.90;99.90
18974;DHT22;9621;48.690;9.466;2023-04-24T15:05:12;11.80;99.90
18974;DHT22;9621;48.690;9.466;2023-04-24T15:07:43;11.60;99.90
18974;DHT22;9621;48.690;9.466;2023-04-24T15:10:12;11.50;99.90
18974;DHT22;9621;48.690;9.466;2023-04-24T15:12:39;11.40;99.90
18974;DHT22;9621;48.690;9.466;2023-04-24T15:15:08;11.50;99.90
18974;DHT22;9621;48.690;9.466;2023-04-24T15:17:35;11.30;99.90
18974;DHT22;9621;48.690;9.466;2023-04-24T15:20:03;11.30;99.90
18974;DHT22;9621;48.690;9.466;2023-04-24T15:22:31;11.30;99.90
18974;DHT22;9621;48.690;9.466;2023-04-24T15:25:00;11.40;99.90
18974;DHT22;9621;48.690;9.466;2023-04-24T15:27:39;11.40;99.90
18974;DHT22;9621;48.690;9.466;2023-04-24T15:30:07;11.40;99.90
18974;DHT22;9621;48.690;9.466;2023-04-24T15:32:35;11.60;99.90
18974;DHT22;9621;48.690;9.466;2023-04-24T15:35:02;11.60;99.90
18974;DHT22;9621;48.690;9.466;2023-04-24T15:37:29;11.60;99.90
18974;DHT22;9621;48.690;9.466;2023-04-24T15:39:56;11.60;99.90
18974;DHT22;9621;48.690;9.466;2023-04-24T15:42:26;11.60;99.90
18974;DHT22;9621;48.690;9.466;2023-04-24T15:44:53;11.60;99.90
18974;DHT22;9621;48.690;9.466;2023-04-24T15:47:20;11.60;99.90
18974;DHT22;9621;48.690;9.466;2023-04-24T15:49:47;11.50;99.90
18974;DHT22;9621;48.690;9.466;2023-04-24T15:52:14;11.50;99.90
18974;DHT22;9621;48.690;9.466;2023-04-24T15:54:41;11.50;99.90
18974;DHT22;9621;48.690;9.466;2023-04-24T15:57:11;11.50;99.90